sensor_id;sensor_type;location;lat;lon;timestamp;P1;durP1;ratioP1;P2;durP2;ratioP2
24102;SDS011;12278;53.058;9.028;2022-10-15T00:00:18;29.13;;;18.38;;
24102;SDS011;12278;53.058;9.028;2022-10-15T00:04:19;26.08;;;19.23;;
24102;SDS011;12278;53.058;9.028;2022-10-15T00:08:20;28.17;;;17.90;;
24102;SDS011;12278;53.058;9.028;2022-10-15T00:12:20;28.55;;;18.90;;
24102;SDS011;12278;53.058;9.028;2022-10-15T00:16:22;28.38;;;17.98;;
24102;SDS011;12278;53.058;9.028;2022-10-15T00:20:24;27.88;;;17.92;;
24102;SDS011;12278;53.058;9.028;2022-10-15T00:24:25;28.30;;;18.75;;
24102;SDS011;12278;53.058;9.028;2022-10-15T00:28:25;23.98;;;17.33;;
24102;SDS011;12278;53.058;9.028;2022-10-15T00:32:26;28.58;;;18.60;;
24102;SDS011;12278;53.058;9.028;2022-10-15T00:36:30;24.52;;;16.70;;
24102;SDS011;12278;53.058;9.028;2022-10-15T00:40:33;22.65;;;15.75;;
24102;SDS011;12278;53.058;9.028;2022-10-15T00:44:47;29.50;;;19.58;;
24102;SDS011;12278;53.058;9.028;2022-10-15T00:48:52;25.52;;;17.63;;
24102;SDS011;12278;53.058;9.028;2022-10-15T00:52:57;26.52;;;18.38;;
24102;SDS011;12278;53.058;9.028;2022-10-15T00:57:04;28.83;;;18.10;;
24102;SDS011;12278;53.058;9.028;2022-10-15T01:01:06;28.50;;;19.90;;
24102;SDS011;12278;53.058;9.028;2022-10-15T01:05:07;30.50;;;19.75;;
24102;SDS011;12278;53.058;9.028;2022-10-15T01:09:08;29.58;;;19.15;;
24102;SDS011;12278;53.058;9.028;2022-10-15T01:17:19;33.58;;;20.45;;
24102;SDS011;12278;53.058;9.028;2022-10-15T01:21:33;35.47;;;21.38;;
24102;SDS011;12278;53.058;9.028;2022-10-15T01:34:21;33.63;;;20.20;;
24102;SDS011;12278;53.058;9.028;2022-10-15T01:38:46;33.47;;;20.23;;
24102;SDS011;12278;53.058;9.028;2022-10-15T01:43:04;34.75;;;20.70;;
24102;SDS011;12278;53.058;9.028;2022-10-15T01:47:12;35.33;;;20.27;;
24102;SDS011;12278;53.058;9.028;2022-10-15T01:51:19;37.88;;;22.05;;
24102;SDS011;12278;53.058;9.028;2022-10-15T01:55:23;39.90;;;22.20;;
24102;SDS011;12278;53.058;9.028;2022-10-15T01:59:27;36.05;;;19.73;;
24102;SDS011;12278;53.058;9.028;2022-10-15T02:03:30;35.95;;;21.77;;
24102;SDS011;12278;53.058;9.028;2022-10-15T02:11:39;36.78;;;22.08;;
24102;SDS011;12278;53.058;9.028;2022-10-15T02:24:49;44.75;;;23.20;;
24102;SDS011;12278;53.058;9.028;2022-10-15T02:29:02;37.42;;;21.80;;
24102;SDS011;12278;53.058;9.028;2022-10-15T02:33:06;36.17;;;21.48;;
24102;SDS011;12278;53.058;9.028;2022-10-15T02:37:09;38.33;;;22.33;;
24102;SDS011;12278;53.058;9.028;2022-10-15T02:41:09;39.17;;;21.63;;
24102;SDS011;12278;53.058;9.028;2022-10-15T02:45:12;37.67;;;22.83;;
24102;SDS011;12278;53.058;9.028;2022-10-15T02:49:12;45.10;;;23.75;;
24102;SDS011;12278;53.058;9.028;2022-10-15T02:53:13;42.17;;;23.52;;
24102;SDS011;12278;53.058;9.028;2022-10-15T02:57:14;45.28;;;23.85;;
24102;SDS011;12278;53.058;9.028;2022-10-15T03:01:14;40.42;;;24.08;;
24102;SDS011;12278;53.058;9.028;2022-10-15T03:05:15;51.00;;;23.95;;
24102;SDS011;12278;53.058;9.028;2022-10-15T03:09:15;43.90;;;23.50;;
24102;SDS011;12278;53.058;9.028;2022-10-15T03:13:16;46.63;;;24.85;;
24102;SDS011;12278;53.058;9.028;2022-10-15T03:17:17;45.75;;;23.83;;
24102;SDS011;12278;53.058;9.028;2022-10-15T03:21:17;47.78;;;23.85;;
24102;SDS011;12278;53.058;9.028;2022-10-15T03:25:18;47.40;;;25.55;;
24102;SDS011;12278;53.058;9.028;2022-10-15T03:29:18;50.50;;;24.48;;
24102;SDS011;12278;53.058;9.028;2022-10-15T03:33:19;48.92;;;24.33;;
24102;SDS011;12278;53.058;9.028;2022-10-15T03:37:20;50.45;;;25.63;;
24102;SDS011;12278;53.058;9.028;2022-10-15T03:41:20;50.67;;;25.23;;
24102;SDS011;12278;53.058;9.028;2022-10-15T03:45:21;46.45;;;23.25;;
24102;SDS011;12278;53.058;9.028;2022-10-15T03:49:23;43.92;;;23.90;;
24102;SDS011;12278;53.058;9.028;2022-10-15T03:53:23;42.92;;;22.92;;
24102;SDS011;12278;53.058;9.028;2022-10-15T03:57:24;47.63;;;24.13;;
24102;SDS011;12278;53.058;9.028;2022-10-15T04:01:24;45.70;;;23.83;;
24102;SDS011;12278;53.058;9.028;2022-10-15T04:05:25;45.85;;;23.88;;
24102;SDS011;12278;53.058;9.028;2022-10-15T04:09:26;45.28;;;24.25;;
24102;SDS011;12278;53.058;9.028;2022-10-15T04:13:27;52.92;;;26.67;;
24102;SDS011;12278;53.058;9.028;2022-10-15T04:17:28;50.30;;;24.67;;
24102;SDS011;12278;53.058;9.028;2022-10-15T04:21:29;46.47;;;24.73;;
24102;SDS011;12278;53.058;9.028;2022-10-15T04:25:29;49.03;;;23.80;;
24102;SDS011;12278;53.058;9.028;2022-10-15T04:29:30;47.53;;;24.00;;
24102;SDS011;12278;53.058;9.028;2022-10-15T04:33:31;50.95;;;25.73;;
24102;SDS011;12278;53.058;9.028;2022-10-15T04:37:32;51.03;;;24.52;;
24102;SDS011;12278;53.058;9.028;2022-10-15T04:41:33;53.75;;;24.67;;
24102;SDS011;12278;53.058;9.028;2022-10-15T04:45:33;54.65;;;26.63;;
24102;SDS011;12278;53.058;9.028;2022-10-15T04:49:34;57.88;;;25.45;;
24102;SDS011;12278;53.058;9.028;2022-10-15T04:53:35;56.15;;;26.30;;
24102;SDS011;12278;53.058;9.028;2022-10-15T04:57:37;55.83;;;26.33;;
24102;SDS011;12278;53.058;9.028;2022-10-15T05:01:38;58.03;;;23.92;;
24102;SDS011;12278;53.058;9.028;2022-10-15T05:05:38;57.35;;;25.45;;
24102;SDS011;12278;53.058;9.028;2022-10-15T05:09:39;62.30;;;26.02;;
24102;SDS011;12278;53.058;9.028;2022-10-15T05:13:40;53.45;;;24.13;;
24102;SDS011;12278;53.058;9.028;2022-10-15T05:17:41;55.75;;;24.00;;
24102;SDS011;12278;53.058;9.028;2022-10-15T05:21:42;56.40;;;24.77;;
24102;SDS011;12278;53.058;9.028;2022-10-15T05:25:42;57.45;;;25.02;;
24102;SDS011;12278;53.058;9.028;2022-10-15T05:29:43;55.78;;;25.67;;
24102;SDS011;12278;53.058;9.028;2022-10-15T05:33:44;53.63;;;24.85;;
24102;SDS011;12278;53.058;9.028;2022-10-15T05:37:45;52.58;;;23.27;;
24102;SDS011;12278;53.058;9.028;2022-10-15T05:41:45;54.22;;;22.52;;
24102;SDS011;12278;53.058;9.028;2022-10-15T05:45:46;54.72;;;24.98;;
24102;SDS011;12278;53.058;9.028;2022-10-15T05:49:46;52.08;;;24.80;;
24102;SDS011;12278;53.058;9.028;2022-10-15T05:53:50;57.10;;;25.65;;
24102;SDS011;12278;53.058;9.028;2022-10-15T05:57:54;54.13;;;24.00;;
24102;SDS011;12278;53.058;9.028;2022-10-15T06:02:00;51.45;;;23.73;;
24102;SDS011;12278;53.058;9.028;2022-10-15T06:06:01;63.80;;;27.05;;
24102;SDS011;12278;53.058;9.028;2022-10-15T06:10:03;59.35;;;25.45;;
24102;SDS011;12278;53.058;9.028;2022-10-15T06:14:04;56.85;;;24.05;;
24102;SDS011;12278;53.058;9.028;2022-10-15T06:18:05;64.57;;;25.73;;
24102;SDS011;12278;53.058;9.028;2022-10-15T06:22:06;56.92;;;25.65;;
24102;SDS011;12278;53.058;9.028;2022-10-15T06:26:07;57.92;;;25.70;;
24102;SDS011;12278;53.058;9.028;2022-10-15T06:30:09;55.22;;;23.70;;
24102;SDS011;12278;53.058;9.028;2022-10-15T06:34:10;63.35;;;25.83;;
24102;SDS011;12278;53.058;9.028;2022-10-15T06:38:10;49.17;;;22.50;;
24102;SDS011;12278;53.058;9.028;2022-10-15T06:42:11;50.70;;;23.15;;
24102;SDS011;12278;53.058;9.028;2022-10-15T06:46:12;58.13;;;24.63;;
24102;SDS011;12278;53.058;9.028;2022-10-15T06:50:13;52.17;;;23.15;;
24102;SDS011;12278;53.058;9.028;2022-10-15T06:54:13;63.70;;;26.50;;
24102;SDS011;12278;53.058;9.028;2022-10-15T06:58:14;45.95;;;23.48;;
24102;SDS011;12278;53.058;9.028;2022-10-15T07:02:15;52.70;;;23.23;;
24102;SDS011;12278;53.058;9.028;2022-10-15T07:06:17;57.08;;;25.50;;
24102;SDS011;12278;53.058;9.028;2022-10-15T07:10:18;54.47;;;23.55;;
24102;SDS011;12278;53.058;9.028;2022-10-15T07:14:30;49.60;;;23.67;;
24102;SDS011;12278;53.058;9.028;2022-10-15T07:18:32;50.28;;;23.95;;
24102;SDS011;12278;53.058;9.028;2022-10-15T07:22:34;52.22;;;23.58;;
24102;SDS011;12278;53.058;9.028;2022-10-15T07:26:34;54.70;;;25.42;;
24102;SDS011;12278;53.058;9.028;2022-10-15T07:30:35;45.38;;;23.25;;
24102;SDS011;12278;53.058;9.028;2022-10-15T07:34:39;52.33;;;24.23;;
24102;SDS011;12278;53.058;9.028;2022-10-15T07:38:40;50.20;;;24.30;;
24102;SDS011;12278;53.058;9.028;2022-10-15T07:42:41;48.97;;;23.55;;
24102;SDS011;12278;53.058;9.028;2022-10-15T07:50:46;46.92;;;23.13;;
24102;SDS011;12278;53.058;9.028;2022-10-15T07:54:52;39.33;;;21.52;;
24102;SDS011;12278;53.058;9.028;2022-10-15T07:58:53;48.00;;;22.65;;
24102;SDS011;12278;53.058;9.028;2022-10-15T08:03:10;44.40;;;23.00;;
24102;SDS011;12278;53.058;9.028;2022-10-15T08:11:52;38.13;;;22.00;;
24102;SDS011;12278;53.058;9.028;2022-10-15T08:15:53;34.30;;;19.35;;
24102;SDS011;12278;53.058;9.028;2022-10-15T08:20:01;32.30;;;19.27;;
24102;SDS011;12278;53.058;9.028;2022-10-15T08:24:05;40.83;;;20.08;;
24102;SDS011;12278;53.058;9.028;2022-10-15T08:28:09;39.97;;;19.35;;
24102;SDS011;12278;53.058;9.028;2022-10-15T08:32:13;33.80;;;20.33;;
24102;SDS011;12278;53.058;9.028;2022-10-15T08:36:16;32.38;;;18.65;;
24102;SDS011;12278;53.058;9.028;2022-10-15T08:40:17;37.20;;;19.83;;
24102;SDS011;12278;53.058;9.028;2022-10-15T08:44:35;35.80;;;17.48;;
24102;SDS011;12278;53.058;9.028;2022-10-15T08:53:47;34.83;;;19.38;;
24102;SDS011;12278;53.058;9.028;2022-10-15T09:02:25;38.22;;;17.55;;
24102;SDS011;12278;53.058;9.028;2022-10-15T09:06:41;40.55;;;19.05;;
24102;SDS011;12278;53.058;9.028;2022-10-15T09:15:59;40.30;;;19.27;;
24102;SDS011;12278;53.058;9.028;2022-10-15T09:20:41;36.15;;;18.13;;
24102;SDS011;12278;53.058;9.028;2022-10-15T09:24:48;38.33;;;19.23;;
24102;SDS011;12278;53.058;9.028;2022-10-15T09:43:13;35.50;;;18.65;;
24102;SDS011;12278;53.058;9.028;2022-10-15T09:47:31;34.55;;;19.02;;
24102;SDS011;12278;53.058;9.028;2022-10-15T10:01:03;31.95;;;16.92;;
24102;SDS011;12278;53.058;9.028;2022-10-15T10:09:28;28.77;;;15.88;;
24102;SDS011;12278;53.058;9.028;2022-10-15T10:13:34;22.70;;;13.50;;
24102;SDS011;12278;53.058;9.028;2022-10-15T10:17:37;22.90;;;13.98;;
24102;SDS011;12278;53.058;9.028;2022-10-15T10:21:38;19.33;;;12.20;;
24102;SDS011;12278;53.058;9.028;2022-10-15T10:25:41;21.92;;;13.05;;
24102;SDS011;12278;53.058;9.028;2022-10-15T10:29:45;21.83;;;11.90;;
24102;SDS011;12278;53.058;9.028;2022-10-15T10:33:55;19.52;;;12.32;;
24102;SDS011;12278;53.058;9.028;2022-10-15T10:38:00;22.90;;;13.45;;
24102;SDS011;12278;53.058;9.028;2022-10-15T10:42:06;20.20;;;13.65;;
24102;SDS011;12278;53.058;9.028;2022-10-15T10:46:22;22.10;;;15.68;;
24102;SDS011;12278;53.058;9.028;2022-10-15T10:50:28;22.25;;;14.13;;
24102;SDS011;12278;53.058;9.028;2022-10-15T10:54:31;20.73;;;15.00;;
24102;SDS011;12278;53.058;9.028;2022-10-15T10:58:33;23.48;;;14.73;;
24102;SDS011;12278;53.058;9.028;2022-10-15T11:02:33;29.23;;;17.90;;
24102;SDS011;12278;53.058;9.028;2022-10-15T11:06:44;31.25;;;17.55;;
24102;SDS011;12278;53.058;9.028;2022-10-15T11:11:11;26.83;;;17.77;;
24102;SDS011;12278;53.058;9.028;2022-10-15T11:19:44;32.90;;;20.73;;
24102;SDS011;12278;53.058;9.028;2022-10-15T11:23:58;34.08;;;22.55;;
24102;SDS011;12278;53.058;9.028;2022-10-15T11:37:12;36.97;;;22.42;;
24102;SDS011;12278;53.058;9.028;2022-10-15T11:45:38;28.17;;;18.33;;
24102;SDS011;12278;53.058;9.028;2022-10-15T11:54:32;28.50;;;18.13;;
24102;SDS011;12278;53.058;9.028;2022-10-15T11:58:49;33.83;;;21.05;;
24102;SDS011;12278;53.058;9.028;2022-10-15T12:02:54;31.75;;;19.80;;
24102;SDS011;12278;53.058;9.028;2022-10-15T12:07:00;28.38;;;17.35;;
24102;SDS011;12278;53.058;9.028;2022-10-15T12:15:34;12.93;;;9.05;;
24102;SDS011;12278;53.058;9.028;2022-10-15T12:19:44;12.15;;;8.43;;
24102;SDS011;12278;53.058;9.028;2022-10-15T12:23:49;13.02;;;9.25;;
24102;SDS011;12278;53.058;9.028;2022-10-15T12:27:57;14.57;;;9.30;;
24102;SDS011;12278;53.058;9.028;2022-10-15T12:32:03;14.02;;;9.60;;
24102;SDS011;12278;53.058;9.028;2022-10-15T12:36:05;14.07;;;10.80;;
24102;SDS011;12278;53.058;9.028;2022-10-15T12:40:28;13.95;;;10.85;;
24102;SDS011;12278;53.058;9.028;2022-10-15T12:44:31;16.58;;;9.75;;
24102;SDS011;12278;53.058;9.028;2022-10-15T12:48:38;19.70;;;12.95;;
24102;SDS011;12278;53.058;9.028;2022-10-15T12:52:58;16.85;;;12.35;;
24102;SDS011;12278;53.058;9.028;2022-10-15T12:57:01;16.65;;;12.20;;
24102;SDS011;12278;53.058;9.028;2022-10-15T13:01:26;20.35;;;13.65;;
24102;SDS011;12278;53.058;9.028;2022-10-15T13:05:29;18.58;;;12.50;;
24102;SDS011;12278;53.058;9.028;2022-10-15T13:09:34;17.75;;;13.27;;
24102;SDS011;12278;53.058;9.028;2022-10-15T13:13:34;15.85;;;12.73;;
24102;SDS011;12278;53.058;9.028;2022-10-15T13:17:35;18.98;;;12.80;;
24102;SDS011;12278;53.058;9.028;2022-10-15T13:21:45;16.70;;;13.48;;
24102;SDS011;12278;53.058;9.028;2022-10-15T13:26:11;19.88;;;13.52;;
24102;SDS011;12278;53.058;9.028;2022-10-15T13:30:29;17.42;;;12.15;;
24102;SDS011;12278;53.058;9.028;2022-10-15T13:34:30;21.15;;;14.25;;
24102;SDS011;12278;53.058;9.028;2022-10-15T13:38:36;20.30;;;13.50;;
24102;SDS011;12278;53.058;9.028;2022-10-15T13:42:38;18.13;;;13.20;;
24102;SDS011;12278;53.058;9.028;2022-10-15T13:47:01;19.40;;;13.10;;
24102;SDS011;12278;53.058;9.028;2022-10-15T13:51:03;20.33;;;12.40;;
24102;SDS011;12278;53.058;9.028;2022-10-15T13:55:08;17.15;;;12.88;;
24102;SDS011;12278;53.058;9.028;2022-10-15T13:59:17;17.83;;;11.88;;
24102;SDS011;12278;53.058;9.028;2022-10-15T14:03:22;14.60;;;11.15;;
24102;SDS011;12278;53.058;9.028;2022-10-15T14:07:23;15.90;;;10.57;;
24102;SDS011;12278;53.058;9.028;2022-10-15T14:11:27;12.80;;;10.20;;
24102;SDS011;12278;53.058;9.028;2022-10-15T14:19:52;16.25;;;11.40;;
24102;SDS011;12278;53.058;9.028;2022-10-15T14:24:02;15.23;;;11.52;;
24102;SDS011;12278;53.058;9.028;2022-10-15T14:28:19;14.50;;;11.57;;
24102;SDS011;12278;53.058;9.028;2022-10-15T14:32:24;17.38;;;11.57;;
24102;SDS011;12278;53.058;9.028;2022-10-15T14:36:30;16.33;;;11.38;;
24102;SDS011;12278;53.058;9.028;2022-10-15T14:40:57;15.55;;;11.75;;
24102;SDS011;12278;53.058;9.028;2022-10-15T14:49:26;18.58;;;11.13;;
24102;SDS011;12278;53.058;9.028;2022-10-15T14:53:30;14.68;;;11.77;;
24102;SDS011;12278;53.058;9.028;2022-10-15T14:57:37;15.60;;;10.52;;
24102;SDS011;12278;53.058;9.028;2022-10-15T15:01:39;15.38;;;12.25;;
24102;SDS011;12278;53.058;9.028;2022-10-15T15:05:44;13.82;;;10.20;;
24102;SDS011;12278;53.058;9.028;2022-10-15T15:09:49;13.40;;;10.38;;
24102;SDS011;12278;53.058;9.028;2022-10-15T15:13:50;13.63;;;9.88;;
24102;SDS011;12278;53.058;9.028;2022-10-15T15:17:51;11.93;;;9.38;;
24102;SDS011;12278;53.058;9.028;2022-10-15T15:21:52;15.85;;;9.02;;
24102;SDS011;12278;53.058;9.028;2022-10-15T15:25:53;12.43;;;9.40;;
24102;SDS011;12278;53.058;9.028;2022-10-15T15:29:55;13.73;;;9.05;;
24102;SDS011;12278;53.058;9.028;2022-10-15T15:33:57;12.57;;;9.40;;
24102;SDS011;12278;53.058;9.028;2022-10-15T15:37:57;12.35;;;8.93;;
24102;SDS011;12278;53.058;9.028;2022-10-15T15:41:58;10.65;;;8.35;;
24102;SDS011;12278;53.058;9.028;2022-10-15T15:45:59;9.35;;;7.55;;
24102;SDS011;12278;53.058;9.028;2022-10-15T15:49:59;10.70;;;7.57;;
24102;SDS011;12278;53.058;9.028;2022-10-15T15:54:00;9.52;;;7.15;;
24102;SDS011;12278;53.058;9.028;2022-10-15T15:58:03;8.70;;;6.68;;
24102;SDS011;12278;53.058;9.028;2022-10-15T16:02:04;8.15;;;6.13;;
24102;SDS011;12278;53.058;9.028;2022-10-15T16:06:05;9.63;;;6.70;;
24102;SDS011;12278;53.058;9.028;2022-10-15T16:10:06;8.85;;;5.30;;
24102;SDS011;12278;53.058;9.028;2022-10-15T16:14:08;8.15;;;5.03;;
24102;SDS011;12278;53.058;9.028;2022-10-15T16:18:08;7.65;;;5.25;;
24102;SDS011;12278;53.058;9.028;2022-10-15T16:22:11;7.88;;;4.43;;
24102;SDS011;12278;53.058;9.028;2022-10-15T16:26:12;3.95;;;3.55;;
24102;SDS011;12278;53.058;9.028;2022-10-15T16:30:13;5.15;;;3.95;;
24102;SDS011;12278;53.058;9.028;2022-10-15T16:34:14;4.65;;;4.10;;
24102;SDS011;12278;53.058;9.028;2022-10-15T16:38:15;3.85;;;2.72;;
24102;SDS011;12278;53.058;9.028;2022-10-15T16:42:15;4.03;;;3.47;;
24102;SDS011;12278;53.058;9.028;2022-10-15T16:46:17;5.38;;;3.60;;
24102;SDS011;12278;53.058;9.028;2022-10-15T16:50:18;4.57;;;3.67;;
24102;SDS011;12278;53.058;9.028;2022-10-15T16:54:18;4.03;;;3.63;;
24102;SDS011;12278;53.058;9.028;2022-10-15T16:58:20;4.75;;;3.55;;
24102;SDS011;12278;53.058;9.028;2022-10-15T17:02:23;3.85;;;3.10;;
24102;SDS011;12278;53.058;9.028;2022-10-15T17:06:25;4.70;;;3.90;;
24102;SDS011;12278;53.058;9.028;2022-10-15T17:10:27;3.55;;;3.10;;
24102;SDS011;12278;53.058;9.028;2022-10-15T17:14:27;5.35;;;3.88;;
24102;SDS011;12278;53.058;9.028;2022-10-15T17:18:28;3.80;;;3.22;;
24102;SDS011;12278;53.058;9.028;2022-10-15T17:22:28;3.58;;;3.28;;
24102;SDS011;12278;53.058;9.028;2022-10-15T17:26:30;3.40;;;3.10;;
24102;SDS011;12278;53.058;9.028;2022-10-15T17:30:35;3.80;;;3.50;;
24102;SDS011;12278;53.058;9.028;2022-10-15T17:34:36;3.97;;;3.67;;
24102;SDS011;12278;53.058;9.028;2022-10-15T17:38:37;4.28;;;3.88;;
24102;SDS011;12278;53.058;9.028;2022-10-15T17:42:38;4.13;;;3.72;;
24102;SDS011;12278;53.058;9.028;2022-10-15T17:46:42;4.07;;;3.78;;
24102;SDS011;12278;53.058;9.028;2022-10-15T17:50:42;4.45;;;4.05;;
24102;SDS011;12278;53.058;9.028;2022-10-15T17:54:43;4.88;;;4.30;;
24102;SDS011;12278;53.058;9.028;2022-10-15T17:58:45;5.03;;;4.47;;
24102;SDS011;12278;53.058;9.028;2022-10-15T18:02:50;4.68;;;4.28;;
24102;SDS011;12278;53.058;9.028;2022-10-15T18:10:51;5.82;;;4.70;;
24102;SDS011;12278;53.058;9.028;2022-10-15T18:14:52;4.90;;;4.38;;
24102;SDS011;12278;53.058;9.028;2022-10-15T18:18:53;16.00;;;7.85;;
24102;SDS011;12278;53.058;9.028;2022-10-15T18:22:54;6.00;;;4.93;;
24102;SDS011;12278;53.058;9.028;2022-10-15T18:26:55;4.95;;;4.50;;
24102;SDS011;12278;53.058;9.028;2022-10-15T18:30:55;5.43;;;4.93;;
24102;SDS011;12278;53.058;9.028;2022-10-15T18:34:56;4.88;;;4.47;;
24102;SDS011;12278;53.058;9.028;2022-10-15T18:38:56;5.00;;;4.50;;
24102;SDS011;12278;53.058;9.028;2022-10-15T18:42:57;5.40;;;4.90;;
24102;SDS011;12278;53.058;9.028;2022-10-15T18:46:58;5.40;;;4.65;;
24102;SDS011;12278;53.058;9.028;2022-10-15T18:50:59;5.82;;;5.32;;
24102;SDS011;12278;53.058;9.028;2022-10-15T18:55:04;7.57;;;6.85;;
24102;SDS011;12278;53.058;9.028;2022-10-15T18:59:09;6.93;;;6.22;;
24102;SDS011;12278;53.058;9.028;2022-10-15T19:03:10;6.85;;;6.18;;
24102;SDS011;12278;53.058;9.028;2022-10-15T19:07:10;7.57;;;6.88;;
24102;SDS011;12278;53.058;9.028;2022-10-15T19:11:11;7.97;;;7.28;;
24102;SDS011;12278;53.058;9.028;2022-10-15T19:15:11;7.53;;;6.82;;
24102;SDS011;12278;53.058;9.028;2022-10-15T19:19:13;6.85;;;6.15;;
24102;SDS011;12278;53.058;9.028;2022-10-15T19:23:16;8.05;;;7.15;;
24102;SDS011;12278;53.058;9.028;2022-10-15T19:27:16;8.90;;;8.13;;
24102;SDS011;12278;53.058;9.028;2022-10-15T19:31:19;8.07;;;7.32;;
24102;SDS011;12278;53.058;9.028;2022-10-15T19:35:23;11.95;;;7.70;;
24102;SDS011;12278;53.058;9.028;2022-10-15T19:39:23;9.05;;;7.50;;
24102;SDS011;12278;53.058;9.028;2022-10-15T19:43:24;7.45;;;6.63;;
24102;SDS011;12278;53.058;9.028;2022-10-15T19:47:25;8.30;;;6.95;;
24102;SDS011;12278;53.058;9.028;2022-10-15T19:51:25;7.22;;;6.57;;
24102;SDS011;12278;53.058;9.028;2022-10-15T19:55:26;6.82;;;6.22;;
24102;SDS011;12278;53.058;9.028;2022-10-15T19:59:26;7.82;;;7.03;;
24102;SDS011;12278;53.058;9.028;2022-10-15T20:03:28;7.95;;;7.15;;
24102;SDS011;12278;53.058;9.028;2022-10-15T20:07:29;8.63;;;7.28;;
24102;SDS011;12278;53.058;9.028;2022-10-15T20:11:30;8.68;;;7.88;;
24102;SDS011;12278;53.058;9.028;2022-10-15T20:15:30;6.93;;;6.32;;
24102;SDS011;12278;53.058;9.028;2022-10-15T20:19:31;8.07;;;7.28;;
24102;SDS011;12278;53.058;9.028;2022-10-15T20:23:32;8.50;;;7.68;;
24102;SDS011;12278;53.058;9.028;2022-10-15T20:27:32;8.65;;;7.78;;
24102;SDS011;12278;53.058;9.028;2022-10-15T20:31:33;9.77;;;6.93;;
24102;SDS011;12278;53.058;9.028;2022-10-15T20:35:35;8.20;;;7.25;;
24102;SDS011;12278;53.058;9.028;2022-10-15T20:39:37;8.93;;;6.70;;
24102;SDS011;12278;53.058;9.028;2022-10-15T20:43:37;7.53;;;6.78;;
24102;SDS011;12278;53.058;9.028;2022-10-15T20:47:40;6.47;;;5.60;;
24102;SDS011;12278;53.058;9.028;2022-10-15T20:51:44;7.53;;;6.10;;
24102;SDS011;12278;53.058;9.028;2022-10-15T20:55:44;6.97;;;5.93;;
24102;SDS011;12278;53.058;9.028;2022-10-15T20:59:45;8.13;;;6.45;;
24102;SDS011;12278;53.058;9.028;2022-10-15T21:03:46;9.23;;;6.40;;
24102;SDS011;12278;53.058;9.028;2022-10-15T21:07:46;7.97;;;6.47;;
24102;SDS011;12278;53.058;9.028;2022-10-15T21:11:47;9.95;;;7.72;;
24102;SDS011;12278;53.058;9.028;2022-10-15T21:15:47;9.65;;;7.05;;
24102;SDS011;12278;53.058;9.028;2022-10-15T21:19:48;8.35;;;7.13;;
24102;SDS011;12278;53.058;9.028;2022-10-15T21:23:49;9.63;;;8.15;;
24102;SDS011;12278;53.058;9.028;2022-10-15T21:27:49;9.68;;;7.53;;
24102;SDS011;12278;53.058;9.028;2022-10-15T21:31:50;9.50;;;8.20;;
24102;SDS011;12278;53.058;9.028;2022-10-15T21:35:51;12.82;;;9.35;;
24102;SDS011;12278;53.058;9.028;2022-10-15T21:39:52;8.98;;;8.07;;
24102;SDS011;12278;53.058;9.028;2022-10-15T21:43:53;10.15;;;9.07;;
24102;SDS011;12278;53.058;9.028;2022-10-15T21:47:54;9.68;;;8.23;;
24102;SDS011;12278;53.058;9.028;2022-10-15T21:51:54;9.43;;;7.53;;
24102;SDS011;12278;53.058;9.028;2022-10-15T21:55:55;9.68;;;7.10;;
24102;SDS011;12278;53.058;9.028;2022-10-15T21:59:56;8.15;;;7.15;;
24102;SDS011;12278;53.058;9.028;2022-10-15T22:03:58;9.23;;;6.30;;
24102;SDS011;12278;53.058;9.028;2022-10-15T22:08:02;8.10;;;5.65;;
24102;SDS011;12278;53.058;9.028;2022-10-15T22:12:03;7.35;;;5.75;;
24102;SDS011;12278;53.058;9.028;2022-10-15T22:16:04;6.78;;;5.10;;
24102;SDS011;12278;53.058;9.028;2022-10-15T22:20:05;8.07;;;5.20;;
24102;SDS011;12278;53.058;9.028;2022-10-15T22:24:07;8.13;;;5.53;;
24102;SDS011;12278;53.058;9.028;2022-10-15T22:28:11;7.18;;;5.03;;
24102;SDS011;12278;53.058;9.028;2022-10-15T22:32:12;6.72;;;4.55;;
24102;SDS011;12278;53.058;9.028;2022-10-15T22:36:14;5.60;;;4.82;;
24102;SDS011;12278;53.058;9.028;2022-10-15T22:40:19;6.65;;;4.72;;
24102;SDS011;12278;53.058;9.028;2022-10-15T22:44:20;6.43;;;4.23;;
24102;SDS011;12278;53.058;9.028;2022-10-15T22:48:20;6.18;;;3.72;;
24102;SDS011;12278;53.058;9.028;2022-10-15T22:52:27;4.30;;;2.97;;
24102;SDS011;12278;53.058;9.028;2022-10-15T22:56:37;5.43;;;3.33;;
24102;SDS011;12278;53.058;9.028;2022-10-15T23:00:38;3.72;;;3.20;;
24102;SDS011;12278;53.058;9.028;2022-10-15T23:04:38;6.10;;;3.42;;
24102;SDS011;12278;53.058;9.028;2022-10-15T23:08:42;4.25;;;3.80;;
24102;SDS011;12278;53.058;9.028;2022-10-15T23:12:49;5.68;;;3.25;;
24102;SDS011;12278;53.058;9.028;2022-10-15T23:16:49;5.30;;;3.38;;
24102;SDS011;12278;53.058;9.028;2022-10-15T23:20:50;4.07;;;3.33;;
24102;SDS011;12278;53.058;9.028;2022-10-15T23:29:22;4.63;;;3.72;;
24102;SDS011;12278;53.058;9.028;2022-10-15T23:33:34;5.35;;;3.50;;
24102;SDS011;12278;53.058;9.028;2022-10-15T23:37:40;5.65;;;3.20;;
24102;SDS011;12278;53.058;9.028;2022-10-15T23:41:44;4.43;;;2.72;;
24102;SDS011;12278;53.058;9.028;2022-10-15T23:45:45;3.15;;;2.17;;
24102;SDS011;12278;53.058;9.028;2022-10-15T23:49:46;3.72;;;2.20;;
24102;SDS011;12278;53.058;9.028;2022-10-15T23:53:53;4.85;;;2.95;;
24102;SDS011;12278;53.058;9.028;2022-10-15T23:58:14;5.25;;;2.58;;
